Time;durP1;ratioP1;P1;durP2;ratioP2;P2;SDS_P1;SDS_P2;PMS_P1;PMS_P2;Temp;Humidity;BMP_temperature;BMP_pressure;BME280_temperature;BME280_humidity;BME280_pressure;Samples;Min_cycle;Max_cycle;Signal;HPM_P1;HPM_P2
2023/04/12 00:00:22;;;;;;;;;;;;;;;12.00;89.28;99602.41;5070948;28;20029;-61
2023/04/12 00:02:48;;;;;;;;;;;;;;;11.92;90.13;99602.78;5071941;28;20349;-61
2023/04/12 00:05:14;;;;;;;;;;;;;;;11.88;91.01;99593.16;5076116;28;20730;-61
2023/04/12 00:07:41;;;;;;;;;;;;;;;11.73;92.63;99580.53;5065138;28;19982;-60
2023/04/12 00:10:08;;;;;;;;;;;;;;;11.76;93.26;99567.09;5068775;28;20266;-60
2023/04/12 00:12:33;;;;;;;;;;;;;;;11.69;93.73;99576.28;5069700;28;19916;-61
2023/04/12 00:15:00;;;;;;;;;;;;;;;11.64;94.53;99570.28;5069991;28;19934;-60
2023/04/12 00:17:25;;;;;;;;;;;;;;;11.66;95.69;99565.75;5070293;28;20508;-60
2023/04/12 00:19:51;;;;;;;;;;;;;;;11.72;95.81;99557.50;5069972;28;19942;-60
2023/04/12 00:22:16;;;;;;;;;;;;;;;11.63;95.41;99549.88;5069605;28;19933;-61
2023/04/12 00:24:42;;;;;;;;;;;;;;;11.48;97.30;99554.06;5070608;28;20405;-60
2023/04/12 00:27:07;;;;;;;;;;;;;;;11.48;96.86;99551.41;5071391;28;19927;-60
2023/04/12 00:29:33;;;;;;;;;;;;;;;11.52;98.42;99544.16;5069323;28;19964;-61
2023/04/12 00:32:00;;;;;;;;;;;;;;;11.56;97.71;99540.44;5071361;28;20364;-60
2023/04/12 00:34:26;;;;;;;;;;;;;;;11.58;97.78;99539.41;5071388;28;19935;-60
2023/04/12 00:36:51;;;;;;;;;;;;;;;11.60;97.09;99531.34;5071529;28;19953;-60
2023/04/12 00:39:16;;;;;;;;;;;;;;;11.54;98.23;99527.19;5070629;28;19942;-60
2023/04/12 00:41:41;;;;;;;;;;;;;;;11.61;98.34;99525.09;5071295;28;20426;-61
2023/04/12 00:44:07;;;;;;;;;;;;;;;11.55;98.75;99525.34;5070444;28;20003;-61
2023/04/12 00:46:33;;;;;;;;;;;;;;;11.53;98.19;99520.09;5070815;28;20004;-60
2023/04/12 00:48:58;;;;;;;;;;;;;;;11.45;98.40;99521.41;5070766;28;20000;-60
2023/04/12 00:51:24;;;;;;;;;;;;;;;11.43;99.05;99507.28;5071329;28;20388;-60
2023/04/12 00:53:52;;;;;;;;;;;;;;;11.35;99.38;99504.09;5070536;28;19927;-60
2023/04/12 00:56:18;;;;;;;;;;;;;;;11.46;99.97;99493.81;5050971;28;19990;-60
2023/04/12 00:58:44;;;;;;;;;;;;;;;11.42;98.27;99493.09;5051173;28;19929;-61
2023/04/12 01:01:09;;;;;;;;;;;;;;;11.37;99.14;99489.75;5067320;28;20314;-60
2023/04/12 01:03:41;;;;;;;;;;;;;;;11.43;98.70;99478.84;5070571;28;19976;-60
2023/04/12 01:06:15;;;;;;;;;;;;;;;11.43;98.52;99473.50;5068239;28;19948;-60
2023/04/12 01:09:14;;;;;;;;;;;;;;;11.35;99.18;99467.66;5070850;28;19923;-61
2023/04/12 01:12:05;;;;;;;;;;;;;;;11.50;99.10;99471.44;5058374;28;20380;-61
2023/04/12 01:14:36;;;;;;;;;;;;;;;11.54;98.71;99460.59;5061007;28;19932;-60
2023/04/12 01:17:04;;;;;;;;;;;;;;;11.63;97.73;99451.31;5067775;28;19946;-60
2023/04/12 01:19:35;;;;;;;;;;;;;;;11.59;97.25;99442.59;5070429;28;19927;-60
2023/04/12 01:22:03;;;;;;;;;;;;;;;11.56;97.41;99433.88;5069763;28;19935;-60
2023/04/12 01:24:37;;;;;;;;;;;;;;;11.66;97.05;99441.41;5070093;28;20044;-60
2023/04/12 01:27:06;;;;;;;;;;;;;;;11.73;96.20;99439.31;5069418;28;19926;-60
2023/04/12 01:29:32;;;;;;;;;;;;;;;11.69;96.65;99435.09;5053197;28;19942;-60
2023/04/12 01:32:01;;;;;;;;;;;;;;;11.65;96.69;99433.47;5050786;28;20023;-61
2023/04/12 01:34:28;;;;;;;;;;;;;;;11.65;96.79;99430.81;5052291;28;19983;-61
2023/04/12 01:36:54;;;;;;;;;;;;;;;11.59;96.46;99420.44;5066402;28;19951;-60
2023/04/12 01:39:19;;;;;;;;;;;;;;;11.51;96.80;99423.44;5070339;28;19940;-60
2023/04/12 01:41:47;;;;;;;;;;;;;;;11.47;96.93;99418.31;5069664;28;19925;-60
2023/04/12 01:44:16;;;;;;;;;;;;;;;11.45;96.62;99414.88;5070002;28;19937;-60
2023/04/12 01:46:46;;;;;;;;;;;;;;;11.45;97.54;99410.41;5070356;28;20396;-60
2023/04/12 01:49:11;;;;;;;;;;;;;;;11.37;97.99;99406.34;5068892;28;20352;-60
2023/04/12 01:51:56;;;;;;;;;;;;;;;11.34;98.02;99403.84;5070273;28;19966;-60
2023/04/12 01:54:29;;;;;;;;;;;;;;;11.36;98.62;99391.31;5068637;28;20302;-60
2023/04/12 01:57:00;;;;;;;;;;;;;;;11.43;98.33;99390.97;5069993;28;20066;-60
2023/04/12 01:59:27;;;;;;;;;;;;;;;11.39;98.02;99377.84;5069431;28;20008;-60
2023/04/12 02:01:52;;;;;;;;;;;;;;;11.28;98.96;99374.84;5070187;28;20217;-61
2023/04/12 02:04:18;;;;;;;;;;;;;;;11.34;98.92;99372.75;5070452;28;19939;-60
2023/04/12 02:06:45;;;;;;;;;;;;;;;11.31;99.98;99364.03;5069325;28;19946;-60
2023/04/12 02:09:10;;;;;;;;;;;;;;;11.25;99.97;99353.69;5068544;28;19932;-60
2023/04/12 02:11:35;;;;;;;;;;;;;;;11.30;100.00;99351.69;5059663;28;19933;-60
2023/04/12 02:14:00;;;;;;;;;;;;;;;11.32;98.55;99344.47;5050040;28;19950;-60
2023/04/12 02:16:28;;;;;;;;;;;;;;;11.37;99.02;99343.31;5066114;28;19952;-60
2023/04/12 02:18:54;;;;;;;;;;;;;;;11.33;98.10;99340.88;5070075;28;20630;-61
2023/04/12 02:21:20;;;;;;;;;;;;;;;11.25;99.86;99332.38;5069084;28;19935;-61
2023/04/12 02:23:45;;;;;;;;;;;;;;;11.24;99.51;99325.31;5065964;28;19947;-60
2023/04/12 02:26:11;;;;;;;;;;;;;;;11.31;99.28;99322.31;5068421;28;19936;-61
2023/04/12 02:28:37;;;;;;;;;;;;;;;11.40;98.52;99316.53;5068625;28;19920;-61
2023/04/12 02:31:03;;;;;;;;;;;;;;;11.35;99.55;99313.22;5072846;28;20026;-60
2023/04/12 02:33:29;;;;;;;;;;;;;;;11.30;99.29;99309.09;5072805;28;20395;-60
2023/04/12 02:35:56;;;;;;;;;;;;;;;11.31;99.39;99305.47;5071558;28;19985;-61
2023/04/12 02:38:22;;;;;;;;;;;;;;;11.32;100.00;99301.84;5072621;28;20442;-60
2023/04/12 02:40:47;;;;;;;;;;;;;;;11.22;100.00;99295.25;5073475;28;19938;-60
2023/04/12 02:43:12;;;;;;;;;;;;;;;11.34;100.00;99290.22;5072809;28;19936;-60
2023/04/12 02:45:38;;;;;;;;;;;;;;;11.38;100.00;99288.28;5073328;28;19976;-60
2023/04/12 02:48:04;;;;;;;;;;;;;;;11.40;99.93;99283.75;5073049;28;19935;-60
2023/04/12 02:50:29;;;;;;;;;;;;;;;11.40;100.00;99267.78;5073705;28;20353;-60
2023/04/12 02:52:55;;;;;;;;;;;;;;;11.42;100.00;99255.22;5073529;28;19926;-60
2023/04/12 02:55:20;;;;;;;;;;;;;;;11.37;100.00;99239.47;5072560;28;20463;-61
2023/04/12 02:57:47;;;;;;;;;;;;;;;11.38;100.00;99240.34;5065177;28;20479;-60
2023/04/12 03:00:14;;;;;;;;;;;;;;;11.45;100.00;99225.81;5071661;28;19930;-60
2023/04/12 03:02:39;;;;;;;;;;;;;;;11.31;100.00;99225.59;5073193;28;19929;-60
2023/04/12 03:05:06;;;;;;;;;;;;;;;11.29;100.00;99223.00;5079385;28;20365;-59
2023/04/12 03:07:32;;;;;;;;;;;;;;;11.25;100.00;99215.25;5073123;28;20020;-59
2023/04/12 03:09:57;;;;;;;;;;;;;;;11.19;100.00;99211.06;5073430;28;20019;-59
2023/04/12 03:12:23;;;;;;;;;;;;;;;11.18;100.00;99208.50;5072554;28;20007;-60
2023/04/12 03:14:48;;;;;;;;;;;;;;;11.14;100.00;99204.25;5073601;28;19994;-59
2023/04/12 03:17:13;;;;;;;;;;;;;;;11.18;100.00;99197.84;5072391;28;19955;-59
2023/04/12 03:19:39;;;;;;;;;;;;;;;11.21;100.00;99177.28;5073380;28;19920;-59
2023/04/12 03:22:05;;;;;;;;;;;;;;;11.16;100.00;99173.09;5073481;28;20279;-59
2023/04/12 03:24:33;;;;;;;;;;;;;;;11.22;100.00;99173.66;5072572;28;19981;-59
2023/04/12 03:26:58;;;;;;;;;;;;;;;11.23;100.00;99170.09;5073192;28;19934;-59
2023/04/12 03:29:23;;;;;;;;;;;;;;;11.22;100.00;99162.19;5068348;28;19936;-59
2023/04/12 03:31:49;;;;;;;;;;;;;;;11.27;100.00;99168.09;5072747;28;20407;-59
2023/04/12 03:34:14;;;;;;;;;;;;;;;11.36;100.00;99167.66;5073129;28;20305;-59
2023/04/12 03:36:40;;;;;;;;;;;;;;;11.40;100.00;99161.28;5071910;28;19953;-59
2023/04/12 03:39:05;;;;;;;;;;;;;;;11.39;100.00;99155.06;5072932;28;19947;-58
2023/04/12 03:41:31;;;;;;;;;;;;;;;11.43;100.00;99153.13;5071252;28;19945;-58
2023/04/12 03:43:56;;;;;;;;;;;;;;;11.48;100.00;99151.09;5072722;28;19940;-58
2023/04/12 03:46:21;;;;;;;;;;;;;;;11.48;100.00;99137.78;5072622;28;19934;-58
2023/04/12 03:48:48;;;;;;;;;;;;;;;11.51;100.00;99140.28;5072017;28;19953;-58
2023/04/12 03:51:14;;;;;;;;;;;;;;;11.46;100.00;99129.88;5072491;28;19928;-58
2023/04/12 03:53:40;;;;;;;;;;;;;;;11.51;100.00;99129.63;5071598;28;19932;-58
2023/04/12 03:56:05;;;;;;;;;;;;;;;11.43;100.00;99118.50;5070719;28;20070;-58
2023/04/12 03:58:32;;;;;;;;;;;;;;;11.44;100.00;99122.88;5071520;28;20347;-58
2023/04/12 04:01:00;;;;;;;;;;;;;;;11.41;100.00;99115.06;5071493;28;19974;-59
2023/04/12 04:03:28;;;;;;;;;;;;;;;11.47;100.00;99114.72;5071125;28;20447;-58
2023/04/12 04:05:54;;;;;;;;;;;;;;;11.46;100.00;99107.69;5070960;28;19947;-58
2023/04/12 04:08:19;;;;;;;;;;;;;;;11.53;100.00;99109.13;5069944;28;19984;-58
2023/04/12 04:10:45;;;;;;;;;;;;;;;11.54;100.00;99105.50;5071578;28;19932;-58
2023/04/12 04:13:10;;;;;;;;;;;;;;;11.54;100.00;99100.19;5071917;28;19977;-59
2023/04/12 04:15:35;;;;;;;;;;;;;;;11.55;100.00;99102.75;5071612;28;19927;-58
2023/04/12 04:18:01;;;;;;;;;;;;;;;11.59;100.00;99098.13;5070903;28;19954;-58
2023/04/12 04:20:26;;;;;;;;;;;;;;;11.61;100.00;99088.28;5071475;28;19936;-58
2023/04/12 04:22:52;;;;;;;;;;;;;;;11.64;100.00;99091.69;5062296;28;19939;-58
2023/04/12 04:25:18;;;;;;;;;;;;;;;11.65;100.00;99087.19;5068698;28;19976;-58
2023/04/12 04:27:44;;;;;;;;;;;;;;;11.64;100.00;99099.69;5071098;28;20014;-58
2023/04/12 04:30:11;;;;;;;;;;;;;;;11.67;100.00;99091.53;5069517;28;20402;-58
2023/04/12 04:32:36;;;;;;;;;;;;;;;11.69;100.00;99084.31;5071161;28;20316;-58
2023/04/12 04:35:02;;;;;;;;;;;;;;;11.70;100.00;99083.38;5071104;28;19931;-58
2023/04/12 04:37:29;;;;;;;;;;;;;;;11.71;100.00;99092.22;5070288;28;19992;-58
2023/04/12 04:39:54;;;;;;;;;;;;;;;11.70;100.00;99086.03;5070913;28;20773;-58
2023/04/12 04:42:20;;;;;;;;;;;;;;;11.69;100.00;99086.13;5069760;28;19936;-58
2023/04/12 04:44:46;;;;;;;;;;;;;;;11.70;100.00;99082.50;5070737;28;19932;-58
2023/04/12 04:47:11;;;;;;;;;;;;;;;11.72;100.00;99077.97;5069666;28;19935;-59
2023/04/12 04:49:37;;;;;;;;;;;;;;;11.76;100.00;99076.88;5070165;28;19943;-59
2023/04/12 04:52:03;;;;;;;;;;;;;;;11.78;100.00;99077.63;5070957;28;20114;-59
2023/04/12 04:54:28;;;;;;;;;;;;;;;11.83;100.00;99078.25;5070963;28;19932;-59
2023/04/12 04:56:53;;;;;;;;;;;;;;;11.83;100.00;99072.91;5070180;28;19924;-59
2023/04/12 04:59:19;;;;;;;;;;;;;;;11.81;100.00;99074.81;5070981;28;20032;-59
2023/04/12 05:01:44;;;;;;;;;;;;;;;11.79;100.00;99063.38;5069413;28;19945;-59
2023/04/12 05:04:09;;;;;;;;;;;;;;;11.78;100.00;99056.31;5069729;28;19926;-59
2023/04/12 05:06:35;;;;;;;;;;;;;;;11.77;100.00;99038.63;5074541;28;19943;-59
2023/04/12 05:09:00;;;;;;;;;;;;;;;11.80;100.00;99033.13;5070480;28;19952;-59
2023/04/12 05:11:26;;;;;;;;;;;;;;;11.77;100.00;99027.97;5070736;28;19927;-59
2023/04/12 05:13:51;;;;;;;;;;;;;;;11.72;100.00;99022.88;5069602;28;19939;-60
2023/04/12 05:16:16;;;;;;;;;;;;;;;11.72;100.00;99019.34;5070438;28;19943;-59
2023/04/12 05:18:41;;;;;;;;;;;;;;;11.74;100.00;99002.34;5070085;28;20473;-59
2023/04/12 05:21:07;;;;;;;;;;;;;;;11.73;100.00;99000.63;5070350;28;19929;-60
2023/04/12 05:23:36;;;;;;;;;;;;;;;11.74;100.00;99001.50;5070348;28;19928;-60
2023/04/12 05:26:01;;;;;;;;;;;;;;;11.77;100.00;98999.53;5069863;28;19935;-60
2023/04/12 05:28:27;;;;;;;;;;;;;;;11.71;100.00;98991.00;5070541;28;19951;-59
2023/04/12 05:30:52;;;;;;;;;;;;;;;11.71;100.00;98985.66;5067826;28;19931;-59
2023/04/12 05:33:17;;;;;;;;;;;;;;;11.76;100.00;98989.78;5068839;28;19940;-59
2023/04/12 05:35:43;;;;;;;;;;;;;;;11.68;100.00;98976.03;5069171;28;19929;-60
2023/04/12 05:38:08;;;;;;;;;;;;;;;11.72;100.00;98976.72;5067546;28;19954;-58
2023/04/12 05:40:35;;;;;;;;;;;;;;;11.68;100.00;98973.38;5050406;28;19931;-60
2023/04/12 05:43:00;;;;;;;;;;;;;;;11.67;100.00;98973.44;5065199;28;19939;-59
2023/04/12 05:45:25;;;;;;;;;;;;;;;11.61;100.00;98965.75;5070190;28;20450;-59
2023/04/12 05:47:52;;;;;;;;;;;;;;;11.55;100.00;98963.41;5069269;28;19916;-59
2023/04/12 05:50:17;;;;;;;;;;;;;;;11.62;100.00;98964.81;5070133;28;19934;-59
2023/04/12 05:52:42;;;;;;;;;;;;;;;11.63;100.00;98955.91;5070046;28;19927;-59
2023/04/12 05:55:08;;;;;;;;;;;;;;;11.65;100.00;98959.34;5069112;28;19995;-59
2023/04/12 05:57:33;;;;;;;;;;;;;;;11.65;100.00;98948.69;5060703;28;20708;-59
2023/04/12 05:59:58;;;;;;;;;;;;;;;11.69;100.00;98939.59;5062873;28;20860;-59
2023/04/12 06:02:24;;;;;;;;;;;;;;;11.73;100.00;98942.00;5070005;28;19936;-59
2023/04/12 06:04:51;;;;;;;;;;;;;;;11.68;100.00;98938.72;5076222;28;19947;-59
2023/04/12 06:07:18;;;;;;;;;;;;;;;11.72;100.00;98940.31;5069512;28;20321;-59
2023/04/12 06:09:43;;;;;;;;;;;;;;;11.77;100.00;98927.59;5070098;28;19929;-60
2023/04/12 06:12:08;;;;;;;;;;;;;;;11.75;100.00;98924.16;5069150;28;20271;-59
2023/04/12 06:14:33;;;;;;;;;;;;;;;11.71;100.00;98914.59;5069834;28;19930;-59
2023/04/12 06:16:59;;;;;;;;;;;;;;;11.79;100.00;98904.38;5067813;28;20106;-58
2023/04/12 06:19:24;;;;;;;;;;;;;;;11.79;100.00;98908.84;5067148;28;19942;-58
2023/04/12 06:21:50;;;;;;;;;;;;;;;11.92;100.00;98888.59;5068580;28;19945;-58
2023/04/12 06:24:15;;;;;;;;;;;;;;;11.94;100.00;98889.38;5068799;28;19929;-58
2023/04/12 06:26:45;;;;;;;;;;;;;;;12.02;100.00;98879.13;5067786;28;19935;-58
2023/04/12 06:29:10;;;;;;;;;;;;;;;11.91;100.00;98869.06;5068490;28;19932;-58
2023/04/12 06:31:36;;;;;;;;;;;;;;;12.06;100.00;98875.31;5059634;28;19936;-58
2023/04/12 06:34:01;;;;;;;;;;;;;;;12.08;100.00;98870.78;5052493;28;20543;-56
2023/04/12 06:36:26;;;;;;;;;;;;;;;12.06;100.00;98859.34;5062537;28;19978;-57
2023/04/12 06:38:51;;;;;;;;;;;;;;;12.08;100.00;98857.44;5069465;28;19961;-57
2023/04/12 06:41:17;;;;;;;;;;;;;;;12.11;100.00;98843.94;5067526;28;20001;-57
2023/04/12 06:43:42;;;;;;;;;;;;;;;12.15;100.00;98845.50;5069090;28;19936;-57
2023/04/12 06:46:07;;;;;;;;;;;;;;;12.20;100.00;98835.44;5059422;28;19964;-57
2023/04/12 06:48:33;;;;;;;;;;;;;;;12.24;100.00;98836.94;5068078;28;20007;-57
2023/04/12 06:50:58;;;;;;;;;;;;;;;12.31;100.00;98840.13;5068567;28;20397;-57
2023/04/12 06:53:23;;;;;;;;;;;;;;;12.30;99.36;98841.94;5067846;28;19933;-57
2023/04/12 06:55:49;;;;;;;;;;;;;;;12.48;99.45;98845.34;5068257;28;19960;-57
2023/04/12 06:58:14;;;;;;;;;;;;;;;12.54;99.15;98843.16;5068149;28;20325;-57
2023/04/12 07:00:39;;;;;;;;;;;;;;;12.55;98.97;98836.03;5069300;28;19930;-57
2023/04/12 07:03:04;;;;;;;;;;;;;;;12.53;98.60;98822.78;5069126;28;19933;-58
2023/04/12 07:05:30;;;;;;;;;;;;;;;12.52;96.26;98815.72;5076260;28;19950;-57
2023/04/12 07:07:55;;;;;;;;;;;;;;;12.59;96.92;98817.06;5068124;28;19941;-57
2023/04/12 07:10:21;;;;;;;;;;;;;;;12.65;96.86;98806.03;5069265;28;19932;-57
2023/04/12 07:12:46;;;;;;;;;;;;;;;12.74;95.91;98799.28;5069343;28;19925;-57
2023/04/12 07:15:11;;;;;;;;;;;;;;;12.76;95.63;98792.91;5069960;28;19931;-57
2023/04/12 07:17:36;;;;;;;;;;;;;;;12.77;95.96;98783.94;5071976;28;19952;-58
2023/04/12 07:20:02;;;;;;;;;;;;;;;12.81;95.61;98782.81;5073132;28;19933;-58
2023/04/12 07:22:27;;;;;;;;;;;;;;;12.79;95.87;98776.72;5071631;28;19934;-58
2023/04/12 07:24:53;;;;;;;;;;;;;;;12.85;96.09;98771.00;5072290;28;19974;-59
2023/04/12 07:27:18;;;;;;;;;;;;;;;12.77;95.33;98762.59;5072387;28;19937;-58
2023/04/12 07:29:43;;;;;;;;;;;;;;;12.64;95.64;98734.97;5072825;28;19966;-58
2023/04/12 07:32:09;;;;;;;;;;;;;;;12.87;95.62;98769.09;5071620;28;19977;-58
2023/04/12 07:34:35;;;;;;;;;;;;;;;12.89;96.50;98767.19;5064630;28;19941;-58
2023/04/12 07:37:01;;;;;;;;;;;;;;;12.88;96.30;98764.63;5069544;28;20389;-58
2023/04/12 07:39:28;;;;;;;;;;;;;;;12.85;95.89;98767.50;5063581;28;19933;-58
2023/04/12 07:41:53;;;;;;;;;;;;;;;12.89;96.38;98777.00;5064063;28;20395;-58
2023/04/12 07:44:19;;;;;;;;;;;;;;;12.92;96.57;98772.34;5072375;28;19933;-58
2023/04/12 07:46:45;;;;;;;;;;;;;;;12.84;95.97;98769.28;5071725;28;19972;-57
2023/04/12 07:49:10;;;;;;;;;;;;;;;12.86;96.35;98770.06;5072489;28;20396;-58
2023/04/12 07:51:36;;;;;;;;;;;;;;;12.76;96.72;98765.38;5072319;28;20019;-58
2023/04/12 07:54:01;;;;;;;;;;;;;;;12.86;96.74;98767.41;5071020;28;19986;-58
2023/04/12 07:56:27;;;;;;;;;;;;;;;12.89;97.11;98761.88;5077931;28;19965;-58
2023/04/12 07:58:52;;;;;;;;;;;;;;;12.93;97.47;98755.38;5070851;28;20618;-58
2023/04/12 08:01:17;;;;;;;;;;;;;;;12.92;97.09;98745.66;5068274;28;20693;-58
2023/04/12 08:03:43;;;;;;;;;;;;;;;12.90;97.48;98744.88;5070998;28;19961;-59
2023/04/12 08:06:08;;;;;;;;;;;;;;;12.94;97.71;98746.41;5070248;28;19948;-59
2023/04/12 08:08:34;;;;;;;;;;;;;;;12.94;97.72;98751.75;5070577;28;19942;-60
2023/04/12 08:11:01;;;;;;;;;;;;;;;12.98;98.23;98745.25;5071006;28;19931;-60
2023/04/12 08:13:26;;;;;;;;;;;;;;;12.94;97.34;98740.22;5071146;28;19934;-60
2023/04/12 08:15:52;;;;;;;;;;;;;;;12.94;96.84;98732.22;5070484;28;19931;-60
2023/04/12 08:18:17;;;;;;;;;;;;;;;12.90;96.77;98738.69;5071741;28;19955;-60
2023/04/12 08:20:47;;;;;;;;;;;;;;;12.94;96.25;98742.88;5071588;28;20588;-60
2023/04/12 08:23:13;;;;;;;;;;;;;;;12.95;96.30;98748.13;5070892;28;19985;-60
2023/04/12 08:25:38;;;;;;;;;;;;;;;12.88;96.47;98754.78;5071714;28;20029;-60
2023/04/12 08:28:04;;;;;;;;;;;;;;;12.93;96.44;98751.84;5070796;28;20026;-60
2023/04/12 08:30:29;;;;;;;;;;;;;;;13.01;96.09;98734.41;5071996;28;19958;-60
2023/04/12 08:32:54;;;;;;;;;;;;;;;12.93;95.73;98739.34;5063419;28;19931;-60
2023/04/12 08:35:21;;;;;;;;;;;;;;;13.14;96.28;98748.75;5055330;28;19931;-60
2023/04/12 08:37:46;;;;;;;;;;;;;;;13.25;96.79;98742.69;5070230;28;20436;-60
2023/04/12 08:40:12;;;;;;;;;;;;;;;13.34;96.40;98746.59;5071137;28;19979;-60
2023/04/12 08:42:38;;;;;;;;;;;;;;;13.36;96.86;98747.38;5071534;28;19926;-60
2023/04/12 08:45:03;;;;;;;;;;;;;;;13.27;95.97;98747.94;5071513;28;20388;-60
2023/04/12 08:47:29;;;;;;;;;;;;;;;13.29;96.88;98764.72;5070313;28;19938;-60
2023/04/12 08:49:55;;;;;;;;;;;;;;;13.32;96.49;98760.06;5071295;28;20388;-60
2023/04/12 08:52:20;;;;;;;;;;;;;;;13.39;97.46;98765.88;5071204;28;19966;-61
2023/04/12 08:54:46;;;;;;;;;;;;;;;13.32;96.69;98751.19;5070089;28;19972;-60
2023/04/12 08:57:12;;;;;;;;;;;;;;;13.20;96.61;98739.47;5071072;28;19967;-60
2023/04/12 08:59:39;;;;;;;;;;;;;;;13.35;96.80;98743.84;5070942;28;19937;-60
2023/04/12 09:02:05;;;;;;;;;;;;;;;13.41;96.76;98745.28;5070974;28;20681;-60
2023/04/12 09:04:30;;;;;;;;;;;;;;;13.52;96.73;98748.09;5073551;28;19951;-60
2023/04/12 09:06:55;;;;;;;;;;;;;;;13.49;95.32;98750.97;5073869;28;19932;-61
2023/04/12 09:09:57;;;;;;;;;;;;;;;13.60;96.07;98748.44;5069793;28;20417;-61
2023/04/12 09:12:23;;;;;;;;;;;;;;;13.41;94.78;98748.78;5047990;28;20070;-60
2023/04/12 09:15:03;;;;;;;;;;;;;;;13.48;94.63;98734.06;5066101;28;19946;-60
2023/04/12 09:17:29;;;;;;;;;;;;;;;13.46;95.02;98743.16;5069693;28;19947;-60
2023/04/12 09:19:55;;;;;;;;;;;;;;;13.60;95.13;98751.13;5070359;28;19938;-61
2023/04/12 09:22:34;;;;;;;;;;;;;;;13.57;96.11;98746.84;5070533;28;19995;-60
2023/04/12 09:24:59;;;;;;;;;;;;;;;13.59;96.13;98752.09;5070422;28;19931;-61
2023/04/12 09:27:27;;;;;;;;;;;;;;;13.66;95.88;98748.03;5069595;28;19943;-61
2023/04/12 09:30:05;;;;;;;;;;;;;;;13.65;96.26;98751.69;5070252;28;19935;-61
2023/04/12 09:32:30;;;;;;;;;;;;;;;13.69;96.49;98743.38;5070607;28;19976;-61
2023/04/12 09:34:56;;;;;;;;;;;;;;;13.65;95.17;98735.66;5057212;28;20710;-61
2023/04/12 09:37:22;;;;;;;;;;;;;;;13.71;95.13;98733.44;5069527;28;19964;-61
2023/04/12 09:39:57;;;;;;;;;;;;;;;13.71;94.87;98727.22;5069769;28;19934;-60
2023/04/12 09:42:22;;;;;;;;;;;;;;;13.78;94.06;98720.53;5069909;28;19943;-61
2023/04/12 09:44:47;;;;;;;;;;;;;;;13.85;93.91;98716.50;5070160;28;20329;-61
2023/04/12 09:47:13;;;;;;;;;;;;;;;13.85;92.49;98717.38;5070458;28;19939;-60
2023/04/12 09:49:39;;;;;;;;;;;;;;;13.92;93.13;98721.31;5070035;28;19955;-60
2023/04/12 09:52:06;;;;;;;;;;;;;;;13.94;92.74;98726.56;5068924;28;19942;-60
2023/04/12 09:54:35;;;;;;;;;;;;;;;13.94;92.38;98716.75;5056115;28;19941;-60
2023/04/12 09:57:01;;;;;;;;;;;;;;;14.05;93.38;98729.41;5058155;28;19963;-60
2023/04/12 09:59:30;;;;;;;;;;;;;;;14.04;92.42;98712.50;5068955;28;20262;-60
2023/04/12 10:01:56;;;;;;;;;;;;;;;14.09;91.95;98709.50;5070124;28;19935;-60
2023/04/12 10:04:21;;;;;;;;;;;;;;;14.18;91.57;98708.91;5072713;28;19933;-60
2023/04/12 10:06:47;;;;;;;;;;;;;;;14.29;91.94;98701.03;5071199;28;19934;-60
2023/04/12 10:09:13;;;;;;;;;;;;;;;14.34;91.75;98709.59;5069868;28;20322;-60
2023/04/12 10:11:40;;;;;;;;;;;;;;;14.34;91.33;98698.88;5067987;28;19933;-60
2023/04/12 10:14:06;;;;;;;;;;;;;;;14.28;90.93;98704.66;5053422;28;19978;-60
2023/04/12 10:16:32;;;;;;;;;;;;;;;14.33;91.39;98703.38;5068598;28;19945;-60
2023/04/12 10:19:00;;;;;;;;;;;;;;;14.25;89.69;98694.16;5070012;28;20047;-59
2023/04/12 10:21:25;;;;;;;;;;;;;;;14.34;90.01;98685.50;5069973;28;19982;-59
2023/04/12 10:23:51;;;;;;;;;;;;;;;14.38;89.46;98679.00;5069049;28;20392;-59
2023/04/12 10:26:16;;;;;;;;;;;;;;;14.37;89.71;98683.50;5070050;28;19969;-59
2023/04/12 10:28:46;;;;;;;;;;;;;;;14.39;89.54;98675.34;5069424;28;19936;-59
2023/04/12 10:31:29;;;;;;;;;;;;;;;14.42;88.82;98677.81;5052162;28;20316;-59
2023/04/12 10:33:54;;;;;;;;;;;;;;;14.40;88.58;98671.69;5056273;28;19976;-59
2023/04/12 10:36:40;;;;;;;;;;;;;;;14.42;87.23;98659.94;5069725;28;19953;-59
2023/04/12 10:39:09;;;;;;;;;;;;;;;14.55;86.18;98661.78;5069771;28;19981;-59
2023/04/12 10:41:35;;;;;;;;;;;;;;;14.64;86.62;98659.31;5069921;28;20414;-59
2023/04/12 10:44:20;;;;;;;;;;;;;;;14.56;84.00;98660.81;5067965;28;19963;-59
2023/04/12 10:46:47;;;;;;;;;;;;;;;14.72;85.14;98648.03;5068100;28;19934;-59
2023/04/12 10:49:13;;;;;;;;;;;;;;;14.84;83.55;98652.53;5070028;28;19943;-59
2023/04/12 10:51:38;;;;;;;;;;;;;;;14.97;84.33;98651.56;5072856;28;19931;-59
2023/04/12 10:54:06;;;;;;;;;;;;;;;15.00;81.66;98645.09;5072053;28;19929;-59
2023/04/12 10:56:39;;;;;;;;;;;;;;;15.10;82.42;98636.31;5073350;28;19987;-59
2023/04/12 10:59:11;;;;;;;;;;;;;;;15.29;79.81;98643.84;5072782;28;19934;-59
2023/04/12 11:01:36;;;;;;;;;;;;;;;15.49;79.59;98638.75;5073369;28;19994;-59
2023/04/12 11:04:05;;;;;;;;;;;;;;;15.50;79.69;98637.78;5072292;28;19937;-59
2023/04/12 11:06:49;;;;;;;;;;;;;;;15.55;80.02;98627.56;5066699;28;20512;-58
2023/04/12 11:09:18;;;;;;;;;;;;;;;15.31;78.34;98641.91;5072971;28;19927;-59
2023/04/12 11:11:44;;;;;;;;;;;;;;;15.38;80.60;98625.28;5072599;28;20004;-58
2023/04/12 11:14:09;;;;;;;;;;;;;;;15.56;79.67;98623.94;5073143;28;20401;-59
2023/04/12 11:16:55;;;;;;;;;;;;;;;15.45;79.56;98631.91;5072129;28;19953;-59
2023/04/12 11:19:21;;;;;;;;;;;;;;;15.41;80.80;98625.09;5052989;28;20580;-59
2023/04/12 11:21:47;;;;;;;;;;;;;;;15.40;80.06;98628.72;5052963;28;19930;-59
2023/04/12 11:24:13;;;;;;;;;;;;;;;15.39;80.14;98620.78;5053049;28;20300;-59
2023/04/12 11:26:38;;;;;;;;;;;;;;;15.24;78.18;98637.97;5054999;28;20016;-59
2023/04/12 11:29:07;;;;;;;;;;;;;;;15.38;79.79;98625.28;5052795;28;20402;-59
2023/04/12 11:31:32;;;;;;;;;;;;;;;15.42;79.62;98613.38;5067533;28;19943;-59
2023/04/12 11:33:58;;;;;;;;;;;;;;;15.49;78.54;98622.69;5071034;28;20312;-59
2023/04/12 11:36:25;;;;;;;;;;;;;;;15.58;78.66;98605.91;5065299;28;19952;-59
2023/04/12 11:38:50;;;;;;;;;;;;;;;15.69;78.05;98591.69;5072998;28;19928;-59
2023/04/12 11:41:17;;;;;;;;;;;;;;;15.63;78.74;98598.38;5071903;28;19929;-59
2023/04/12 11:43:43;;;;;;;;;;;;;;;15.62;78.43;98604.72;5071775;28;19981;-59
2023/04/12 11:46:09;;;;;;;;;;;;;;;15.59;78.45;98601.41;5070292;28;19920;-59
2023/04/12 11:48:37;;;;;;;;;;;;;;;15.62;79.06;98580.59;5071455;28;19931;-59
2023/04/12 11:51:28;;;;;;;;;;;;;;;15.79;77.53;98590.03;5070695;28;19935;-59
2023/04/12 11:53:54;;;;;;;;;;;;;;;16.08;76.76;98585.13;5071359;28;19980;-59
2023/04/12 11:56:20;;;;;;;;;;;;;;;16.32;75.50;98580.53;5070297;28;20385;-59
2023/04/12 11:58:46;;;;;;;;;;;;;;;16.37;76.32;98575.66;5064785;28;20038;-59
2023/04/12 12:01:12;;;;;;;;;;;;;;;16.46;75.32;98572.25;5070803;28;19969;-59
2023/04/12 12:03:38;;;;;;;;;;;;;;;16.33;73.66;98566.13;5070295;28;19981;-58
2023/04/12 12:06:04;;;;;;;;;;;;;;;16.27;75.39;98570.16;5074378;28;20433;-59
2023/04/12 12:08:29;;;;;;;;;;;;;;;16.37;75.41;98573.81;5071691;28;19942;-59
2023/04/12 12:10:55;;;;;;;;;;;;;;;16.30;74.40;98575.28;5070564;28;19934;-59
2023/04/12 12:13:20;;;;;;;;;;;;;;;16.11;75.52;98582.19;5072262;28;20025;-58
2023/04/12 12:15:45;;;;;;;;;;;;;;;15.99;75.62;98572.41;5071218;28;19930;-59
2023/04/12 12:18:11;;;;;;;;;;;;;;;15.90;76.19;98581.19;5072016;28;19959;-59
2023/04/12 12:20:54;;;;;;;;;;;;;;;15.70;79.06;98588.91;5072366;28;19930;-59
2023/04/12 12:23:46;;;;;;;;;;;;;;;15.52;80.75;98576.91;5071104;28;19939;-58
2023/04/12 12:26:21;;;;;;;;;;;;;;;15.40;82.27;98590.38;5070546;28;20375;-58
2023/04/12 12:28:56;;;;;;;;;;;;;;;15.41;82.69;98576.84;5071211;28;19931;-58
2023/04/12 12:31:23;;;;;;;;;;;;;;;15.46;81.99;98574.69;5069975;28;19926;-58
2023/04/12 12:33:51;;;;;;;;;;;;;;;15.49;80.18;98571.78;5070852;28;19939;-58
2023/04/12 12:36:17;;;;;;;;;;;;;;;15.64;80.53;98567.06;5065746;28;19930;-58
2023/04/12 12:38:42;;;;;;;;;;;;;;;15.72;80.18;98584.28;5071043;28;19945;-58
2023/04/12 12:41:15;;;;;;;;;;;;;;;15.78;78.75;98570.41;5070628;28;20252;-58